Time;durP1;ratioP1;P1;durP2;ratioP2;P2;SDS_P1;SDS_P2;PMS_P1;PMS_P2;Temp;Humidity;BMP_temperature;BMP_pressure;BME280_temperature;BME280_humidity;BME280_pressure;Samples;Min_cycle;Max_cycle;Signal;HPM_P1;HPM_P2
2023/05/31 05:00:14;;;;;;;2.73;2.23;;;17.10;97.20;;;;;;1720530;28;20676;-72
2023/05/31 05:01:06;;;;;;;3.45;2.65;;;17.10;97.20;;;;;;1720543;28;20247;-72
2023/05/31 05:01:58;;;;;;;2.88;2.35;;;17.10;97.20;;;;;;1720406;28;20207;-67
2023/05/31 05:02:49;;;;;;;3.10;2.17;;;17.10;97.20;;;;;;1720453;28;20201;-67
2023/05/31 05:03:41;;;;;;;3.40;2.40;;;17.20;97.20;;;;;;1720560;28;20193;-67
2023/05/31 05:04:32;;;;;;;3.55;2.50;;;17.20;97.20;;;;;;1725988;28;20239;-67
2023/05/31 05:05:25;;;;;;;3.50;2.30;;;17.20;97.20;;;;;;1723670;28;20312;-67
2023/05/31 05:06:17;;;;;;;2.20;2.00;;;17.20;97.20;;;;;;1719250;28;20204;-67
2023/05/31 05:07:08;;;;;;;3.90;2.22;;;17.20;97.20;;;;;;1720070;28;20193;-67
2023/05/31 05:07:59;;;;;;;3.95;2.53;;;17.30;97.20;;;;;;1720180;28;20556;-66
2023/05/31 05:08:51;;;;;;;4.77;2.40;;;17.30;97.20;;;;;;1720393;28;20263;-67
2023/05/31 05:09:41;;;;;;;4.80;2.20;;;17.30;97.20;;;;;;1720625;28;20573;-67
2023/05/31 05:10:33;;;;;;;8.50;2.60;;;17.30;97.20;;;;;;1720404;28;20930;-67
2023/05/31 05:11:25;;;;;;;4.47;2.38;;;17.30;97.20;;;;;;1720362;28;20448;-67
2023/05/31 05:12:16;;;;;;;2.17;1.98;;;17.40;97.20;;;;;;1720403;28;20283;-67
2023/05/31 05:13:07;;;;;;;3.50;2.38;;;17.40;97.20;;;;;;1720401;28;20208;-67
2023/05/31 05:13:59;;;;;;;3.10;1.97;;;17.40;97.20;;;;;;1720338;28;20208;-67
2023/05/31 05:14:49;;;;;;;3.80;2.38;;;17.40;97.20;;;;;;1720371;28;20205;-67
2023/05/31 05:15:42;;;;;;;4.73;2.00;;;17.40;97.20;;;;;;1720340;28;20275;-67
2023/05/31 05:16:33;;;;;;;4.10;2.63;;;17.40;97.20;;;;;;1720218;28;20208;-67
2023/05/31 05:17:25;;;;;;;3.03;2.10;;;17.40;97.20;;;;;;1720175;28;20201;-67
2023/05/31 05:18:16;;;;;;;4.03;2.33;;;17.40;97.20;;;;;;1720490;28;20285;-67
2023/05/31 05:19:07;;;;;;;3.30;2.10;;;17.40;97.20;;;;;;1720331;28;20205;-67
2023/05/31 05:19:58;;;;;;;2.35;2.10;;;17.50;97.20;;;;;;1726857;28;20212;-67
2023/05/31 05:20:50;;;;;;;2.90;2.33;;;17.50;97.20;;;;;;1726977;28;20248;-67
2023/05/31 05:21:41;;;;;;;3.22;2.42;;;17.50;97.20;;;;;;1727118;28;20683;-67
2023/05/31 05:22:33;;;;;;;4.27;2.40;;;17.50;97.20;;;;;;1727025;28;20676;-67
2023/05/31 05:23:24;;;;;;;4.53;2.15;;;17.50;97.20;;;;;;1727007;28;20207;-67
2023/05/31 05:24:16;;;;;;;2.78;2.13;;;17.50;97.20;;;;;;1727079;28;20220;-67
2023/05/31 05:25:07;;;;;;;5.15;2.60;;;17.50;97.20;;;;;;1726986;28;20668;-67
2023/05/31 05:25:59;;;;;;;5.22;2.72;;;17.50;97.20;;;;;;1721503;28;20197;-69
2023/05/31 05:26:50;;;;;;;4.78;2.30;;;17.50;97.20;;;;;;1719794;28;20198;-67
2023/05/31 05:27:42;;;;;;;3.97;2.40;;;17.60;97.20;;;;;;1719769;28;20292;-67
2023/05/31 05:28:32;;;;;;;2.53;2.33;;;17.60;97.20;;;;;;1720817;28;20244;-67
2023/05/31 05:29:24;;;;;;;5.03;2.70;;;17.60;97.20;;;;;;1723451;28;20197;-67
2023/05/31 05:30:15;;;;;;;4.10;2.38;;;17.60;97.20;;;;;;1726224;28;20200;-67
2023/05/31 05:31:08;;;;;;;3.67;2.45;;;17.60;97.20;;;;;;1713123;28;20273;-70
2023/05/31 05:31:59;;;;;;;6.63;3.03;;;17.60;97.20;;;;;;1713551;28;20218;-67
2023/05/31 05:32:51;;;;;;;2.63;2.20;;;17.70;97.20;;;;;;1713751;28;20216;-67
2023/05/31 05:33:42;;;;;;;3.45;2.60;;;17.70;97.20;;;;;;1713768;28;20610;-67
2023/05/31 05:34:33;;;;;;;2.87;2.10;;;17.70;97.20;;;;;;1715448;28;20595;-68
2023/05/31 05:35:24;;;;;;;5.13;2.55;;;17.70;97.20;;;;;;1720501;28;20665;-72
2023/05/31 05:36:16;;;;;;;4.80;2.87;;;17.80;97.20;;;;;;1722683;28;20660;-68
2023/05/31 05:37:06;;;;;;;5.63;2.58;;;17.80;97.20;;;;;;1727050;28;20231;-70
2023/05/31 05:37:59;;;;;;;5.87;2.67;;;17.80;97.20;;;;;;1725511;28;20207;-67
2023/05/31 05:38:50;;;;;;;5.28;2.55;;;17.80;97.20;;;;;;1722841;28;20725;-67
2023/05/31 05:39:42;;;;;;;3.60;2.30;;;17.80;97.20;;;;;;1721246;28;20739;-67
2023/05/31 05:40:33;;;;;;;3.83;2.72;;;17.90;97.20;;;;;;1721730;28;20464;-67
2023/05/31 05:41:25;;;;;;;4.77;2.73;;;17.90;97.20;;;;;;1721859;28;20201;-68
2023/05/31 05:42:16;;;;;;;2.88;2.30;;;17.90;97.20;;;;;;1721812;28;20268;-67
2023/05/31 05:43:09;;;;;;;5.00;2.20;;;17.90;97.20;;;;;;1721737;28;20264;-68
2023/05/31 05:44:00;;;;;;;4.72;2.80;;;17.90;97.20;;;;;;1721740;28;20235;-68
2023/05/31 05:44:52;;;;;;;4.77;2.90;;;18.00;97.20;;;;;;1721838;28;20300;-67
2023/05/31 05:45:42;;;;;;;3.25;2.17;;;18.00;97.20;;;;;;1721727;28;20452;-68
2023/05/31 05:46:35;;;;;;;4.93;2.63;;;18.00;97.20;;;;;;1721700;28;20287;-68
2023/05/31 05:47:26;;;;;;;3.53;2.92;;;18.00;97.20;;;;;;1721746;28;20201;-68
2023/05/31 05:48:18;;;;;;;4.63;2.77;;;18.00;97.20;;;;;;1721698;28;20197;-68
2023/05/31 05:49:09;;;;;;;4.63;2.97;;;18.00;97.20;;;;;;1721819;28;20669;-68
2023/05/31 05:50:00;;;;;;;4.20;2.50;;;18.10;97.20;;;;;;1721696;28;20597;-68
2023/05/31 05:50:51;;;;;;;6.55;2.55;;;18.10;97.20;;;;;;1721851;28;20476;-67
2023/05/31 05:51:43;;;;;;;5.13;3.00;;;18.10;97.20;;;;;;1722766;28;20224;-67
2023/05/31 05:52:34;;;;;;;5.43;2.65;;;18.10;97.20;;;;;;1722091;28;20209;-67
2023/05/31 05:53:26;;;;;;;3.75;2.50;;;18.10;97.20;;;;;;1724656;28;20201;-68
2023/05/31 05:54:16;;;;;;;6.28;2.55;;;18.10;97.20;;;;;;1728457;28;20200;-68
2023/05/31 05:55:09;;;;;;;7.00;2.50;;;18.10;97.20;;;;;;1728494;28;20200;-68
2023/05/31 05:56:00;;;;;;;6.82;2.40;;;18.20;97.20;;;;;;1728160;28;20596;-67
2023/05/31 05:56:52;;;;;;;4.60;2.63;;;18.20;97.20;;;;;;1728422;28;20227;-68
2023/05/31 05:57:42;;;;;;;3.10;2.53;;;18.20;97.20;;;;;;1728472;28;20450;-68
2023/05/31 05:58:34;;;;;;;3.33;2.43;;;18.30;97.20;;;;;;1727891;28;20211;-67
2023/05/31 05:59:25;;;;;;;8.20;2.50;;;18.30;97.20;;;;;;1718942;28;20260;-69
2023/05/31 06:00:17;;;;;;;3.50;2.20;;;18.30;97.20;;;;;;1718552;28;20220;-69
2023/05/31 06:01:08;;;;;;;3.90;2.50;;;18.30;97.20;;;;;;1725527;28;20201;-70
2023/05/31 06:02:01;;;;;;;6.70;2.40;;;18.30;97.20;;;;;;1728309;28;20208;-70
2023/05/31 06:02:52;;;;;;;4.00;2.67;;;18.40;97.20;;;;;;1728334;28;20207;-69
2023/05/31 06:03:43;;;;;;;3.43;2.50;;;18.40;97.20;;;;;;1728259;28;20204;-70
2023/05/31 06:04:34;;;;;;;3.78;2.50;;;18.40;97.20;;;;;;1728287;28;20205;-70
2023/05/31 06:05:26;;;;;;;7.20;2.47;;;18.40;97.20;;;;;;1728340;28;20207;-72
2023/05/31 06:06:17;;;;;;;4.47;2.25;;;18.40;97.20;;;;;;1727508;28;20571;-74
2023/05/31 06:07:09;;;;;;;4.17;2.43;;;18.40;97.20;;;;;;1728134;28;20572;-70
2023/05/31 06:08:00;;;;;;;3.95;2.72;;;18.40;97.20;;;;;;1728260;28;20200;-70
2023/05/31 06:08:51;;;;;;;4.50;2.30;;;18.40;97.20;;;;;;1728222;28;20221;-71
2023/05/31 06:09:42;;;;;;;5.47;2.47;;;18.40;97.20;;;;;;1728169;28;20453;-70
2023/05/31 06:10:34;;;;;;;5.73;2.47;;;18.50;97.20;;;;;;1724635;28;20219;-71
2023/05/31 06:11:25;;;;;;;4.32;2.50;;;18.50;97.20;;;;;;1721113;28;20444;-70
2023/05/31 06:12:17;;;;;;;5.07;2.20;;;18.50;97.20;;;;;;1721122;28;20310;-71
2023/05/31 06:13:08;;;;;;;3.30;2.20;;;18.50;97.20;;;;;;1727925;28;20215;-70
2023/05/31 06:13:59;;;;;;;6.35;2.50;;;18.50;97.20;;;;;;1727780;28;20212;-70
2023/05/31 06:14:50;;;;;;;3.72;2.60;;;18.50;97.20;;;;;;1727736;28;20230;-71
2023/05/31 06:15:42;;;;;;;3.33;2.67;;;18.60;97.20;;;;;;1727231;28;20201;-71
2023/05/31 06:16:33;;;;;;;3.90;2.30;;;18.60;97.20;;;;;;1727102;28;20213;-70
2023/05/31 06:17:26;;;;;;;4.83;2.67;;;18.60;97.20;;;;;;1728279;28;20295;-71
2023/05/31 06:18:17;;;;;;;6.90;3.28;;;18.60;97.20;;;;;;1728327;28;20927;-71
2023/05/31 06:19:08;;;;;;;4.53;2.50;;;18.70;97.20;;;;;;1728465;28;20726;-71
2023/05/31 06:20:00;;;;;;;4.18;2.78;;;18.70;97.20;;;;;;1728418;28;20800;-70
2023/05/31 06:20:53;;;;;;;7.20;2.60;;;18.70;97.20;;;;;;1728194;28;20270;-70
2023/05/31 06:21:44;;;;;;;4.55;2.85;;;18.70;97.20;;;;;;1728431;28;20208;-70
2023/05/31 06:22:36;;;;;;;4.35;2.53;;;18.80;97.20;;;;;;1725915;28;20656;-70
2023/05/31 06:23:28;;;;;;;6.13;3.10;;;18.80;97.20;;;;;;1721695;28;20197;-71
2023/05/31 06:24:20;;;;;;;4.65;2.55;;;18.80;97.20;;;;;;1721208;28;20205;-70
2023/05/31 06:25:12;;;;;;;6.30;2.30;;;18.80;97.20;;;;;;1720959;28;20205;-70
2023/05/31 06:26:04;;;;;;;3.50;2.50;;;18.80;97.20;;;;;;1722106;28;20203;-71
2023/05/31 06:26:55;;;;;;;4.18;2.42;;;18.80;97.20;;;;;;1727945;28;20200;-70
2023/05/31 06:27:47;;;;;;;8.17;3.37;;;18.90;97.20;;;;;;1727537;28;20204;-70
2023/05/31 06:28:37;;;;;;;4.43;2.50;;;18.90;97.20;;;;;;1726852;28;20254;-70
2023/05/31 06:29:29;;;;;;;6.40;2.40;;;18.90;97.20;;;;;;1726941;28;20197;-70
2023/05/31 06:30:21;;;;;;;10.35;2.80;;;18.90;97.20;;;;;;1726460;28;20200;-70
2023/05/31 06:31:12;;;;;;;11.93;3.83;;;19.00;97.20;;;;;;1727079;28;20215;-71
2023/05/31 06:32:04;;;;;;;7.55;3.03;;;19.00;97.20;;;;;;1727856;28;20205;-70
2023/05/31 06:32:57;;;;;;;9.80;2.60;;;19.00;97.20;;;;;;1727998;28;20212;-70
2023/05/31 06:33:48;;;;;;;7.05;2.80;;;19.10;97.20;;;;;;1727958;28;20208;-70
2023/05/31 06:34:40;;;;;;;5.85;2.67;;;19.10;97.20;;;;;;1727873;28;20207;-70
2023/05/31 06:35:31;;;;;;;8.48;2.70;;;19.10;97.20;;;;;;1728032;28;20339;-70
2023/05/31 06:36:22;;;;;;;4.10;3.43;;;19.10;97.20;;;;;;1727627;28;20204;-70
2023/05/31 06:37:13;;;;;;;10.88;2.97;;;19.20;97.20;;;;;;1727867;28;20219;-70
2023/05/31 06:38:06;;;;;;;16.25;2.83;;;19.20;97.20;;;;;;1727921;28;20614;-70
2023/05/31 06:38:57;;;;;;;5.20;2.90;;;19.20;97.20;;;;;;1728000;28;20284;-70
2023/05/31 06:39:49;;;;;;;7.80;2.50;;;19.20;97.20;;;;;;1728235;28;20299;-71
2023/05/31 06:40:39;;;;;;;8.52;3.53;;;19.20;97.20;;;;;;1723157;28;20587;-70
2023/05/31 06:41:34;;;;;;;6.90;2.87;;;19.20;97.20;;;;;;1721192;28;20282;-70
2023/05/31 06:42:25;;;;;;;7.38;2.60;;;19.20;97.20;;;;;;1721300;28;20896;-70
2023/05/31 06:43:16;;;;;;;7.77;2.40;;;19.30;97.20;;;;;;1721390;28;20209;-70
2023/05/31 06:44:07;;;;;;;8.70;3.20;;;19.30;97.20;;;;;;1721650;28;20205;-70
2023/05/31 06:44:59;;;;;;;9.27;2.87;;;19.30;97.20;;;;;;1721504;28;20208;-70
2023/05/31 06:45:50;;;;;;;8.68;3.33;;;19.30;97.20;;;;;;1721237;28;20233;-71
2023/05/31 06:46:42;;;;;;;9.40;3.25;;;19.40;97.20;;;;;;1721624;28;20224;-70
2023/05/31 06:47:32;;;;;;;6.40;2.75;;;19.40;97.20;;;;;;1721469;28;20205;-70
2023/05/31 06:48:25;;;;;;;5.37;2.50;;;19.40;97.20;;;;;;1721517;28;20202;-70
2023/05/31 06:49:16;;;;;;;5.60;2.30;;;19.40;97.20;;;;;;1721408;28;20263;-70
2023/05/31 06:50:11;;;;;;;3.57;2.70;;;19.50;97.20;;;;;;1721349;28;20205;-70
2023/05/31 06:51:02;;;;;;;3.85;2.60;;;19.50;97.20;;;;;;1714762;28;20873;-70
2023/05/31 06:51:54;;;;;;;5.13;2.60;;;19.50;97.20;;;;;;1714693;28;20206;-70
2023/05/31 06:52:45;;;;;;;9.73;2.92;;;19.60;97.20;;;;;;1714765;28;20448;-70
2023/05/31 06:53:36;;;;;;;4.30;3.00;;;19.60;97.20;;;;;;1714787;28;20211;-70
2023/05/31 06:54:27;;;;;;;5.82;2.70;;;19.60;97.20;;;;;;1714699;28;20244;-70
2023/05/31 06:55:19;;;;;;;6.25;2.92;;;19.60;97.20;;;;;;1714721;28;20606;-70
2023/05/31 06:56:10;;;;;;;7.65;2.45;;;19.60;97.20;;;;;;1714474;28;20212;-70
2023/05/31 06:57:02;;;;;;;4.80;2.63;;;19.70;97.20;;;;;;1714734;28;20204;-70
2023/05/31 06:57:52;;;;;;;7.03;3.13;;;19.70;97.20;;;;;;1714713;28;20205;-70
2023/05/31 06:58:44;;;;;;;3.57;2.53;;;19.70;97.20;;;;;;1714726;28;20202;-70
2023/05/31 06:59:35;;;;;;;8.93;3.20;;;19.70;97.20;;;;;;1714675;28;20202;-71
2023/05/31 07:00:27;;;;;;;5.88;2.30;;;19.80;97.20;;;;;;1718316;28;20280;-70
2023/05/31 07:01:18;;;;;;;6.45;2.80;;;19.80;97.20;;;;;;1721511;28;20220;-70
2023/05/31 07:02:10;;;;;;;4.67;2.73;;;19.80;97.20;;;;;;1721600;28;20212;-71
2023/05/31 07:03:01;;;;;;;8.48;2.80;;;19.80;97.20;;;;;;1721437;28;20212;-70
2023/05/31 07:03:54;;;;;;;5.03;3.17;;;19.90;97.20;;;;;;1721482;28;20200;-70
2023/05/31 07:04:44;;;;;;;10.98;3.55;;;19.90;97.20;;;;;;1721436;28;20239;-70
2023/05/31 07:05:36;;;;;;;5.17;2.87;;;19.90;97.20;;;;;;1721375;28;20664;-70
2023/05/31 07:06:28;;;;;;;4.70;2.80;;;19.90;97.20;;;;;;1721272;28;20197;-70
2023/05/31 07:07:20;;;;;;;5.40;2.90;;;19.90;97.20;;;;;;1721236;28;20201;-70
2023/05/31 07:08:10;;;;;;;12.93;3.70;;;19.90;97.20;;;;;;1721501;28;20559;-70
2023/05/31 07:09:03;;;;;;;9.43;3.20;;;20.00;97.20;;;;;;1721436;28;20251;-70
2023/05/31 07:09:55;;;;;;;5.68;2.90;;;20.00;97.20;;;;;;1721403;28;20205;-70
2023/05/31 07:10:46;;;;;;;5.90;2.47;;;20.00;97.20;;;;;;1726457;28;20248;-70
2023/05/31 07:11:38;;;;;;;5.50;2.95;;;20.00;97.20;;;;;;1728020;28;20208;-71
2023/05/31 07:12:30;;;;;;;7.32;2.78;;;20.00;97.20;;;;;;1728080;28;20212;-70
2023/05/31 07:13:22;;;;;;;11.10;2.88;;;20.00;97.20;;;;;;1728043;28;20209;-70
2023/05/31 07:14:15;;;;;;;8.55;2.40;;;20.10;97.20;;;;;;1728038;28;20215;-70
2023/05/31 07:15:08;;;;;;;9.93;3.08;;;20.10;97.20;;;;;;1728043;28;20201;-70
2023/05/31 07:15:59;;;;;;;5.10;2.85;;;20.20;97.20;;;;;;1727751;28;20200;-70
2023/05/31 07:16:51;;;;;;;4.00;2.60;;;20.20;97.20;;;;;;1728017;28;20248;-70
2023/05/31 07:17:41;;;;;;;7.13;2.80;;;20.20;97.20;;;;;;1727977;28;20686;-70
2023/05/31 07:18:33;;;;;;;5.80;2.93;;;20.20;97.20;;;;;;1728093;28;20656;-71
2023/05/31 07:19:28;;;;;;;5.47;2.55;;;20.30;97.20;;;;;;1727961;28;20201;-71
2023/05/31 07:20:20;;;;;;;5.53;2.90;;;20.30;97.20;;;;;;1726082;28;20601;-71
2023/05/31 07:21:10;;;;;;;4.25;2.85;;;20.30;97.20;;;;;;1721390;28;20209;-70
2023/05/31 07:22:02;;;;;;;4.80;3.50;;;20.30;97.20;;;;;;1721389;28;20208;-70
2023/05/31 07:22:53;;;;;;;6.55;2.67;;;20.30;97.20;;;;;;1721304;28;20568;-71
2023/05/31 07:23:44;;;;;;;6.27;2.87;;;20.30;97.20;;;;;;1721434;28;20227;-70
2023/05/31 07:24:35;;;;;;;3.95;2.50;;;20.40;97.20;;;;;;1721276;28;20581;-71
2023/05/31 07:25:27;;;;;;;5.43;3.10;;;20.40;97.20;;;;;;1721293;28;20219;-70
2023/05/31 07:26:18;;;;;;;6.60;2.78;;;20.50;97.20;;;;;;1720905;28;20205;-70
2023/05/31 07:27:10;;;;;;;8.98;3.35;;;20.50;97.20;;;;;;1721188;28;20200;-70
2023/05/31 07:28:00;;;;;;;9.48;2.60;;;20.50;97.20;;;;;;1721177;28;20584;-70
2023/05/31 07:28:52;;;;;;;8.03;3.03;;;20.50;97.20;;;;;;1721188;28;20201;-70
2023/05/31 07:29:43;;;;;;;8.02;2.97;;;20.60;97.20;;;;;;1721270;28;20229;-71
2023/05/31 07:30:35;;;;;;;3.93;2.63;;;20.60;97.20;;;;;;1724110;28;20256;-70
2023/05/31 07:31:25;;;;;;;6.18;3.25;;;20.70;97.20;;;;;;1727899;28;20249;-70
2023/05/31 07:32:17;;;;;;;7.70;3.53;;;20.70;97.20;;;;;;1727938;28;20204;-70
2023/05/31 07:33:08;;;;;;;6.38;2.95;;;20.70;97.20;;;;;;1727899;28;20232;-71
2023/05/31 07:33:59;;;;;;;4.90;2.87;;;20.70;97.20;;;;;;1727820;28;20211;-70
2023/05/31 07:34:52;;;;;;;6.88;2.95;;;20.70;97.20;;;;;;1727948;28;20228;-70
2023/05/31 07:35:44;;;;;;;6.80;2.95;;;20.80;97.20;;;;;;1727759;28;20208;-70
2023/05/31 07:36:35;;;;;;;4.00;2.70;;;20.80;97.20;;;;;;1727828;28;20220;-70
2023/05/31 07:37:27;;;;;;;9.47;2.90;;;20.80;97.20;;;;;;1727806;28;20196;-70
2023/05/31 07:38:17;;;;;;;5.97;3.15;;;20.90;97.20;;;;;;1727864;28;20207;-71
2023/05/31 07:39:10;;;;;;;8.40;2.47;;;20.90;97.20;;;;;;1727961;28;20214;-71
2023/05/31 07:40:01;;;;;;;6.13;2.78;;;20.90;97.20;;;;;;1727820;28;20208;-70
2023/05/31 07:40:53;;;;;;;4.43;2.63;;;20.90;97.20;;;;;;1721894;28;20221;-71
2023/05/31 07:41:43;;;;;;;6.05;2.95;;;21.00;97.20;;;;;;1721130;28;20560;-71
2023/05/31 07:42:36;;;;;;;6.43;2.63;;;21.00;97.20;;;;;;1721057;28;20223;-70
2023/05/31 07:43:29;;;;;;;7.15;2.83;;;21.10;97.20;;;;;;1721154;28;20445;-70
2023/05/31 07:44:21;;;;;;;7.80;3.00;;;21.10;97.20;;;;;;1721158;28;20205;-71
2023/05/31 07:45:13;;;;;;;8.75;3.58;;;21.10;97.20;;;;;;1721041;28;20208;-71
2023/05/31 07:46:04;;;;;;;7.18;2.80;;;21.10;97.20;;;;;;1720795;28;20209;-70
2023/05/31 07:46:56;;;;;;;6.40;3.00;;;21.10;97.20;;;;;;1720940;28;20209;-70
2023/05/31 07:47:47;;;;;;;8.25;3.20;;;21.10;97.20;;;;;;1721124;28;20216;-70
2023/05/31 07:48:38;;;;;;;6.80;3.07;;;21.10;97.20;;;;;;1720988;28;20731;-70
2023/05/31 07:49:29;;;;;;;5.07;2.85;;;21.10;97.20;;;;;;1721011;28;20259;-70
2023/05/31 07:50:22;;;;;;;12.10;3.30;;;21.20;97.20;;;;;;1721818;28;20676;-70
2023/05/31 07:51:13;;;;;;;6.07;2.55;;;21.20;97.20;;;;;;1727818;28;20208;-71
2023/05/31 07:52:05;;;;;;;5.07;2.60;;;21.20;97.20;;;;;;1727880;28;20204;-71
2023/05/31 07:52:56;;;;;;;6.55;3.15;;;21.30;97.20;;;;;;1727742;28;20213;-71
2023/05/31 07:53:47;;;;;;;6.10;3.17;;;21.30;97.20;;;;;;1727781;28;20212;-71
2023/05/31 07:54:38;;;;;;;6.38;3.03;;;21.30;97.20;;;;;;1727740;28;20450;-71
2023/05/31 07:55:30;;;;;;;6.40;2.83;;;21.30;97.20;;;;;;1727843;28;20211;-70
2023/05/31 07:56:22;;;;;;;9.70;3.33;;;21.40;97.20;;;;;;1727393;28;20200;-71
2023/05/31 07:57:12;;;;;;;10.20;3.13;;;21.40;97.20;;;;;;1727759;28;20237;-70
2023/05/31 07:58:05;;;;;;;7.33;2.87;;;21.40;97.20;;;;;;1727829;28;20231;-71
2023/05/31 07:58:56;;;;;;;7.53;3.35;;;21.50;97.20;;;;;;1727765;28;20366;-71
2023/05/31 07:59:50;;;;;;;6.37;2.97;;;21.50;97.20;;;;;;1727787;28;20243;-70
2023/05/31 08:00:41;;;;;;;5.72;2.95;;;21.50;97.20;;;;;;1723859;28;20912;-71
2023/05/31 08:01:33;;;;;;;6.07;3.10;;;21.60;97.20;;;;;;1721071;28;20590;-71
2023/05/31 08:02:24;;;;;;;6.55;2.63;;;21.60;97.20;;;;;;1720587;28;20731;-70
2023/05/31 08:03:16;;;;;;;7.37;3.37;;;21.60;97.20;;;;;;1720930;28;20589;-70
2023/05/31 08:04:07;;;;;;;8.88;3.13;;;21.60;97.20;;;;;;1721000;28;20444;-70
2023/05/31 08:05:01;;;;;;;6.95;3.50;;;21.70;97.20;;;;;;1720884;28;20197;-70
2023/05/31 08:05:53;;;;;;;7.10;3.10;;;21.70;97.20;;;;;;1720750;28;20669;-70
2023/05/31 08:06:45;;;;;;;11.88;3.05;;;21.80;97.20;;;;;;1720879;28;20263;-71
2023/05/31 08:07:36;;;;;;;10.45;2.85;;;21.80;97.20;;;;;;1721000;28;20212;-71
2023/05/31 08:08:29;;;;;;;5.70;3.40;;;21.80;97.20;;;;;;1721029;28;20691;-70
2023/05/31 08:09:20;;;;;;;6.93;3.00;;;21.90;97.20;;;;;;1720921;28;20653;-70
2023/05/31 08:10:12;;;;;;;5.78;2.83;;;21.90;97.20;;;;;;1720913;28;20205;-70
2023/05/31 08:11:03;;;;;;;5.70;3.00;;;21.90;97.20;;;;;;1721243;28;20591;-71
2023/05/31 08:11:55;;;;;;;8.52;3.00;;;22.00;97.20;;;;;;1720962;28;20495;-71
2023/05/31 08:12:46;;;;;;;9.57;3.47;;;22.00;97.20;;;;;;1720886;28;20244;-71
2023/05/31 08:13:38;;;;;;;6.60;3.90;;;22.00;97.20;;;;;;1720905;28;20205;-71
2023/05/31 08:14:29;;;;;;;8.50;2.72;;;22.00;97.20;;;;;;1721001;28;20582;-70
2023/05/31 08:15:21;;;;;;;9.70;3.30;;;22.10;97.20;;;;;;1720853;28;20233;-70
2023/05/31 08:16:11;;;;;;;8.98;2.95;;;22.10;97.20;;;;;;1720608;28;20212;-70
2023/05/31 08:17:03;;;;;;;7.93;2.97;;;22.20;97.20;;;;;;1720811;28;20217;-70
2023/05/31 08:17:55;;;;;;;5.90;3.10;;;22.20;97.20;;;;;;1720966;28;20208;-70
2023/05/31 08:18:46;;;;;;;6.63;2.72;;;22.20;97.20;;;;;;1720953;28;20205;-70
2023/05/31 08:19:37;;;;;;;10.52;3.70;;;22.30;97.20;;;;;;1720819;28;20197;-70
2023/05/31 08:20:29;;;;;;;6.90;2.87;;;22.30;97.20;;;;;;1721926;28;20211;-70
2023/05/31 08:21:21;;;;;;;7.07;2.83;;;22.40;97.20;;;;;;1727523;28;20207;-68
2023/05/31 08:22:13;;;;;;;6.65;2.85;;;22.40;97.20;;;;;;1727579;28;20656;-68
2023/05/31 08:23:04;;;;;;;6.88;3.47;;;22.40;97.20;;;;;;1727548;28;20200;-68
2023/05/31 08:23:56;;;;;;;10.80;3.10;;;22.50;97.20;;;;;;1727561;28;20201;-68
2023/05/31 08:24:46;;;;;;;4.05;2.70;;;22.50;97.20;;;;;;1727633;28;20208;-68
2023/05/31 08:25:41;;;;;;;4.20;3.20;;;22.60;97.20;;;;;;1727416;28;20205;-68
2023/05/31 08:26:33;;;;;;;6.65;2.50;;;22.60;97.20;;;;;;1727368;28;20207;-68
2023/05/31 08:27:24;;;;;;;7.43;2.90;;;22.60;97.20;;;;;;1727413;28;20208;-68
2023/05/31 08:28:16;;;;;;;6.13;3.00;;;22.70;97.20;;;;;;1727545;28;20655;-67
2023/05/31 08:29:07;;;;;;;3.92;2.85;;;22.70;97.20;;;;;;1727538;28;20208;-68
2023/05/31 08:29:58;;;;;;;6.80;3.00;;;22.80;97.20;;;;;;1727522;28;20230;-68
2023/05/31 08:30:49;;;;;;;7.10;3.17;;;22.80;97.20;;;;;;1723008;28;20235;-68
2023/05/31 08:31:42;;;;;;;7.75;2.95;;;22.90;97.20;;;;;;1720655;28;20209;-68
2023/05/31 08:32:33;;;;;;;7.30;3.00;;;22.90;97.20;;;;;;1720752;28;20627;-68
2023/05/31 08:33:28;;;;;;;3.77;2.70;;;23.00;97.20;;;;;;1720804;28;20201;-68
2023/05/31 08:34:19;;;;;;;10.50;3.65;;;23.00;97.20;;;;;;1720798;28;20657;-68
2023/05/31 08:35:11;;;;;;;6.70;3.20;;;23.00;97.20;;;;;;1720856;28;20626;-68
2023/05/31 08:36:04;;;;;;;5.25;2.90;;;23.00;97.20;;;;;;1720495;28;20205;-68
2023/05/31 08:36:56;;;;;;;10.00;3.35;;;23.10;97.20;;;;;;1720680;28;20240;-68
2023/05/31 08:37:47;;;;;;;6.18;3.35;;;23.10;97.20;;;;;;1720757;28;20204;-68
2023/05/31 08:38:38;;;;;;;5.95;2.97;;;23.10;97.20;;;;;;1720661;28;20205;-68
2023/05/31 08:39:30;;;;;;;7.90;3.40;;;23.20;97.20;;;;;;1720785;28;20207;-68
2023/05/31 08:40:22;;;;;;;6.40;3.47;;;23.20;97.20;;;;;;1720573;28;20209;-68
2023/05/31 08:41:14;;;;;;;8.45;4.00;;;23.20;97.20;;;;;;1727387;28;20192;-68
2023/05/31 08:42:13;;;;;;;6.85;3.03;;;23.30;97.20;;;;;;1727468;28;20200;-68
2023/05/31 08:43:10;;;;;;;8.13;3.20;;;23.30;97.20;;;;;;1727466;28;20203;-68
2023/05/31 08:44:02;;;;;;;6.25;3.22;;;23.40;97.20;;;;;;1727469;28;20205;-68
2023/05/31 08:44:54;;;;;;;11.50;3.50;;;23.40;97.20;;;;;;1727520;28;20224;-68
2023/05/31 08:45:44;;;;;;;14.65;3.42;;;23.50;97.20;;;;;;1727360;28;20581;-70
2023/05/31 08:46:37;;;;;;;9.23;3.23;;;23.50;97.20;;;;;;1727360;28;20200;-69
2023/05/31 08:47:36;;;;;;;5.03;3.03;;;23.50;97.20;;;;;;1727426;28;20201;-69
2023/05/31 08:48:33;;;;;;;5.43;3.05;;;23.50;97.20;;;;;;1727483;28;20239;-69
2023/05/31 08:49:24;;;;;;;9.65;3.10;;;23.60;97.20;;;;;;1727388;28;20232;-68
2023/05/31 08:50:18;;;;;;;4.43;3.42;;;23.60;97.20;;;;;;1727450;28;20526;-68
2023/05/31 08:51:09;;;;;;;6.32;3.05;;;23.60;97.20;;;;;;1720889;28;20197;-69
2023/05/31 08:52:03;;;;;;;7.05;3.42;;;23.60;97.20;;;;;;1720666;28;20201;-69
2023/05/31 08:52:56;;;;;;;4.28;2.75;;;23.70;97.20;;;;;;1720653;28;20292;-69
2023/05/31 08:53:48;;;;;;;6.80;3.35;;;23.70;97.20;;;;;;1720624;28;20680;-68
2023/05/31 08:54:40;;;;;;;5.38;3.38;;;23.80;97.20;;;;;;1720626;28;20578;-69
2023/05/31 08:55:31;;;;;;;7.05;3.05;;;23.80;97.20;;;;;;1720641;28;20197;-69
2023/05/31 08:56:23;;;;;;;5.07;3.20;;;23.80;97.20;;;;;;1720325;28;20197;-68
2023/05/31 08:57:15;;;;;;;7.13;2.80;;;23.90;97.20;;;;;;1720574;28;20324;-69
2023/05/31 08:58:07;;;;;;;6.40;3.35;;;23.90;97.20;;;;;;1720719;28;20225;-69
2023/05/31 08:58:59;;;;;;;4.88;2.95;;;23.90;97.20;;;;;;1720648;28;20600;-69
2023/05/31 08:59:52;;;;;;;9.10;3.78;;;24.00;97.20;;;;;;1720606;28;20236;-69
2023/05/31 09:00:45;;;;;;;8.20;3.25;;;24.00;97.20;;;;;;1722887;28;20586;-69
2023/05/31 09:01:37;;;;;;;6.50;3.30;;;24.10;97.20;;;;;;1727339;28;20737;-68
2023/05/31 09:02:29;;;;;;;8.60;3.35;;;24.10;97.20;;;;;;1727403;28;20267;-69
2023/05/31 09:03:22;;;;;;;4.90;3.28;;;24.20;97.20;;;;;;1727308;28;20216;-68
2023/05/31 09:04:15;;;;;;;8.65;3.97;;;24.30;97.20;;;;;;1727444;28;20230;-69
2023/05/31 09:05:10;;;;;;;4.53;3.17;;;24.30;97.20;;;;;;1727364;28;20235;-69
2023/05/31 09:06:01;;;;;;;9.68;3.22;;;24.40;97.20;;;;;;1726960;28;20201;-69
2023/05/31 09:06:52;;;;;;;5.93;3.15;;;24.40;97.20;;;;;;1727372;28;20568;-68
2023/05/31 09:07:49;;;;;;;6.90;3.00;;;24.50;97.20;;;;;;1727332;28;20579;-68
2023/05/31 09:08:40;;;;;;;10.40;3.10;;;24.50;97.20;;;;;;1727440;28;20232;-69
2023/05/31 09:09:32;;;;;;;5.70;3.33;;;24.50;97.20;;;;;;1727314;28;20200;-69
2023/05/31 09:10:23;;;;;;;8.98;3.40;;;24.60;97.20;;;;;;1726922;28;20594;-68
2023/05/31 09:11:15;;;;;;;8.30;3.50;;;24.60;97.20;;;;;;1720714;28;20586;-68
2023/05/31 09:12:06;;;;;;;4.30;3.05;;;24.60;97.20;;;;;;1720594;28;20205;-69
2023/05/31 09:12:57;;;;;;;10.13;3.70;;;24.70;97.20;;;;;;1720617;28;20252;-69
2023/05/31 09:13:48;;;;;;;7.13;3.67;;;24.70;97.20;;;;;;1720120;28;20292;-68
2023/05/31 09:14:40;;;;;;;5.63;3.20;;;24.70;97.20;;;;;;1720184;28;20259;-68
2023/05/31 09:15:31;;;;;;;6.43;3.10;;;24.80;97.20;;;;;;1720595;28;20669;-69
2023/05/31 09:16:24;;;;;;;7.72;3.03;;;24.80;97.20;;;;;;1720169;28;20652;-71
2023/05/31 09:17:17;;;;;;;5.50;2.90;;;24.80;97.20;;;;;;1720588;28;20205;-71
2023/05/31 09:18:16;;;;;;;8.50;3.85;;;24.80;97.20;;;;;;1720631;28;20229;-71
2023/05/31 09:19:07;;;;;;;12.35;3.58;;;24.90;97.20;;;;;;1720552;28;20205;-71
2023/05/31 09:20:00;;;;;;;7.77;3.73;;;24.90;97.20;;;;;;1720756;28;20201;-71
2023/05/31 09:20:53;;;;;;;9.52;3.83;;;24.90;97.20;;;;;;1723756;28;20464;-70
2023/05/31 09:21:46;;;;;;;7.75;3.67;;;25.00;97.20;;;;;;1726924;28;20239;-71
2023/05/31 09:22:36;;;;;;;5.68;3.30;;;25.00;97.20;;;;;;1726965;28;20579;-71
2023/05/31 09:23:29;;;;;;;6.47;3.50;;;25.10;97.20;;;;;;1727424;28;20200;-71
2023/05/31 09:24:22;;;;;;;7.75;3.83;;;25.10;97.20;;;;;;1727324;28;20204;-70
2023/05/31 09:25:14;;;;;;;5.65;2.75;;;25.10;97.20;;;;;;1727389;28;20243;-71
2023/05/31 09:26:07;;;;;;;10.68;3.35;;;25.20;97.20;;;;;;1727069;28;20200;-71
2023/05/31 09:27:00;;;;;;;5.10;3.00;;;25.20;97.20;;;;;;1727227;28;20211;-71
2023/05/31 09:27:52;;;;;;;5.78;3.40;;;25.30;97.20;;;;;;1727329;28;20200;-71
2023/05/31 09:28:49;;;;;;;16.87;4.10;;;25.30;97.20;;;;;;1727296;28;20239;-70